Unicom:                    122.8

AWOS:                  118.275

Elevation           1458’ MSL

TPA:                   2500’ MSL

06/24:         5003’ L   75’ W

PAPI:       06/Left     24/Left

(Operate lights on unicom freq.)

Traffic Pattern: Left

Beacon: Sunset to Sunrise

Windsock: yes, lighted

Segmented Circle: No

 

Cleveland Center: 126.72/291.65

FSS: Altoona

[Source: ADDS]
METAR
KFKL 011708Z AUTO 31009KT 10SM VCTS BKN035 BKN050 OVC100 22/15 A2988 RMK AO2 LTG DSNT W-N TSB02 =
KFKL 011120Z 0112/0212 00000KT P6SM SKC FM011500 24005KT P6SM BKN040 TEMPO 0119/0123 3SM -TSRA BKN025CB FM012300 31006KT P6SM SKC FM020900 VRB03KT P6SM OVC005
TAF
KFKL 011120Z 0112/0212 00000KT P6SM SKC FM011500 24005KT P6SM BKN040 TEMPO 0119/0123 3SM -TSRA BKN025CB FM012300 31006KT P6SM SKC FM020900 VRB03KT P6SM OVC005 =
[Source: ADDS]
METAR
KDUJ 011653Z AUTO 23008KT 10SM SCT035 SCT055 BKN075 23/14 A2987 RMK AO2 SLP103 T02280144 =
KDUJ 011120Z 0112/0212 18004KT P6SM BKN035 TEMPO 0121/0124 2SM -TSRA BKN025CB FM020100 29008KT P6SM SKC FM020900 VRB03KT P6SM OVC006
TAF
KDUJ 011120Z 0112/0212 18004KT P6SM BKN035 TEMPO 0121/0124 2SM -TSRA BKN025CB FM020100 29008KT P6SM SKC FM020900 VRB03KT P6SM OVC006 =

Nearby Overnight Accommodations.

The Park Inn by Radisson

45 Holiday Inn Rd

Clarion, PA 16214

Phone # (814) 226-8850

Park Inn by Radisson

45 Holiday Inn Rd Clarion, PA 16214 Phone # (814) 226-8850

Microtel

121 North Point Drive

Clarion, PA 16214

Phone # (814) 227-2223

Microtel

121 North Point Drive Clarion, PA 16214 Phone # (814) 227-2223

Hampton Inn and Suites

4 Hospital Drive

Clarion, PA 16214

Phone # (814) 226-4444

Hampton Inn & Suites

4 Hospital Drive Clarion, PA 16214 Phone # (814) 226-4444

Comfort Inn

129 Dolby Street

Clarion, PA 16214

Phone # (814) 226-5230

Comfort Inn

129 Dolby Street Clarion, PA 16214 Phone # (814) 226-5230

Quality Inn

24 United Drive

Clarion, PA 16214 

Phone # (814) 226-8682 


Quality Inn

24 United Drive Clarion, PA 16214 Phone # (814) 226-8682

Holiday Inn Express

325 Perkins Road

Clarion, PA 16214

Phone (814) 223-4010


Holiday Inn Express

325 Perkins Road Clarion, PA 16214 Phone (814) 223-4010

Super 8 Motel

135 Hotel Road

Clarion, PA 16214

Phone # (800) 536-9326

Super 8 Motel

135 Hotel Road Clarion, PA 16214 Phone # (800) 536-9326


Transportation.

Enterprise

545 South Fifth Avenue

Clarion, PA 16214

Phone # (814) 227-1284

Enterprise

545 South Fifth Avenue Clarion, PA 16214 Phone # (814) 227-1284

Clarion County Taxi, Inc.

East End Road

Clarion County Taxi, Inc.

Shippenville, PA 16254

Phone # (814) 226-8635

 *cash, check, debit


Choice Cab Co.

Clarion, PA 16214

Phone # (814) 221- 4992

 *cash only